createdAt,value
2018-02-06T00:00:42.760Z,1002.42
2018-02-06T00:01:42.779Z,1002.39
2018-02-06T00:02:42.725Z,1002.39
2018-02-06T00:03:42.708Z,1002.38
2018-02-06T00:04:42.689Z,1002.35
2018-02-06T00:05:42.672Z,1002.33
2018-02-06T00:06:42.654Z,1002.31
2018-02-06T00:07:42.637Z,1002.24
2018-02-06T00:08:42.619Z,1002.26
2018-02-06T00:09:42.601Z,1002.19
2018-02-06T00:10:42.583Z,1002.18
2018-02-06T00:11:42.566Z,1002.21
2018-02-06T00:12:42.548Z,1002.19
2018-02-06T00:13:42.531Z,1002.12
2018-02-06T00:14:42.513Z,1002.14
2018-02-06T00:15:42.495Z,1002.13
2018-02-06T00:16:42.477Z,1002.10
2018-02-06T00:17:42.460Z,1002.09
2018-02-06T00:18:42.441Z,1002.13
2018-02-06T00:19:42.424Z,1002.06
2018-02-06T00:20:42.406Z,1002.11
2018-02-06T00:21:42.387Z,1002.13
2018-02-06T00:22:42.376Z,1002.08
2018-02-06T00:23:42.354Z,1002.02
2018-02-06T00:24:42.334Z,1002.07
2018-02-06T00:25:42.317Z,1002.02
2018-02-06T00:26:42.302Z,1001.97
2018-02-06T00:27:42.281Z,1001.96
2018-02-06T00:28:42.263Z,1001.91
2018-02-06T00:29:42.246Z,1001.92
2018-02-06T00:30:42.228Z,1001.93
2018-02-06T00:31:42.210Z,1001.92
2018-02-06T00:32:42.191Z,1001.93
2018-02-06T00:33:42.176Z,1001.90
2018-02-06T00:34:42.157Z,1001.91
2018-02-06T00:35:42.138Z,1001.92
2018-02-06T00:36:42.121Z,1001.90
2018-02-06T00:37:42.105Z,1001.90
2018-02-06T00:38:42.087Z,1001.85
2018-02-06T00:39:42.110Z,1001.80
2018-02-06T00:40:42.049Z,1001.82
2018-02-06T00:41:42.031Z,1001.81
2018-02-06T00:42:42.015Z,1001.78
2018-02-06T00:43:41.995Z,1001.75
2018-02-06T00:44:41.977Z,1001.72
2018-02-06T00:45:41.962Z,1001.70
2018-02-06T00:46:41.943Z,1001.67
2018-02-06T00:47:41.924Z,1001.69
2018-02-06T00:48:41.906Z,1001.65
2018-02-06T00:49:41.888Z,1001.67
2018-02-06T00:50:41.871Z,1001.60
2018-02-06T00:51:41.853Z,1001.63
2018-02-06T00:52:41.836Z,1001.60
2018-02-06T00:53:41.818Z,1001.61
2018-02-06T00:54:41.800Z,1001.55
2018-02-06T00:55:41.782Z,1001.56
2018-02-06T00:56:41.772Z,1001.59
2018-02-06T00:57:41.751Z,1001.55
2018-02-06T00:58:41.729Z,1001.62
2018-02-06T00:59:41.711Z,1001.61
2018-02-06T01:00:41.693Z,1001.56
2018-02-06T01:01:41.679Z,1001.54
2018-02-06T01:02:41.658Z,1001.49
2018-02-06T01:03:41.639Z,1001.54
2018-02-06T01:04:41.620Z,1001.43
2018-02-06T01:05:41.602Z,1001.43
2018-02-06T01:06:41.585Z,1001.44
2018-02-06T01:07:41.566Z,1001.48
2018-02-06T01:08:41.548Z,1001.45
2018-02-06T01:09:41.533Z,1001.39
2018-02-06T01:10:41.513Z,1001.41
2018-02-06T01:11:41.496Z,1001.33
2018-02-06T01:12:41.476Z,1001.38
2018-02-06T01:13:41.460Z,1001.39
2018-02-06T01:14:41.441Z,1001.39
2018-02-06T01:15:41.423Z,1001.35
2018-02-06T01:16:41.406Z,1001.38
2018-02-06T01:17:41.387Z,1001.41
2018-02-06T01:18:41.369Z,1001.34
2018-02-06T01:19:41.352Z,1001.34
2018-02-06T01:20:41.332Z,1001.35
2018-02-06T01:21:41.314Z,1001.27
2018-02-06T01:22:41.299Z,1001.25
2018-02-06T01:23:41.278Z,1001.20
2018-02-06T01:24:41.260Z,1001.24
2018-02-06T01:25:41.241Z,1001.22
2018-02-06T01:26:41.250Z,1001.16
2018-02-06T01:27:41.206Z,1001.19
2018-02-06T01:28:41.188Z,1001.21
2018-02-06T01:29:41.169Z,1001.22
2018-02-06T01:30:41.151Z,1001.24
2018-02-06T01:31:41.134Z,1001.18
2018-02-06T01:32:41.113Z,1001.15
2018-02-06T01:33:41.100Z,1001.11
2018-02-06T01:34:41.085Z,1001.10
2018-02-06T01:35:41.061Z,1001.09
2018-02-06T01:36:41.042Z,1001.07
2018-02-06T01:37:41.024Z,1001.06
2018-02-06T01:38:41.007Z,1001.08
2018-02-06T01:39:40.989Z,1001.09
2018-02-06T01:40:40.970Z,1001.05
2018-02-06T01:41:40.952Z,1001.05
2018-02-06T01:42:40.942Z,1001.06
2018-02-06T01:43:40.916Z,1001.02
2018-02-06T01:44:40.897Z,1001.00
2018-02-06T01:45:40.879Z,1000.98
2018-02-06T01:46:40.863Z,1000.98
2018-02-06T01:47:40.843Z,1000.97
2018-02-06T01:48:40.827Z,1000.98
2018-02-06T01:49:40.807Z,1000.91
2018-02-06T01:50:40.788Z,1000.87
2018-02-06T01:51:40.771Z,1000.92
2018-02-06T01:52:40.752Z,1000.87
2018-02-06T01:53:40.734Z,1000.85
2018-02-06T01:54:40.719Z,1000.85
2018-02-06T01:55:40.698Z,1000.86
2018-02-06T01:56:40.679Z,1000.80
2018-02-06T01:57:40.661Z,1000.77
2018-02-06T01:58:40.643Z,1000.81
2018-02-06T01:59:40.627Z,1000.77
2018-02-06T02:00:40.607Z,1000.77
2018-02-06T02:01:40.591Z,1000.75
2018-02-06T02:02:40.570Z,1000.73
2018-02-06T02:03:40.553Z,1000.70
2018-02-06T02:04:40.533Z,1000.67
2018-02-06T02:05:40.516Z,1000.68
2018-02-06T02:06:40.501Z,1000.63
2018-02-06T02:07:40.480Z,1000.60
2018-02-06T02:08:40.461Z,1000.56
2018-02-06T02:09:40.442Z,1000.60
2018-02-06T02:10:40.426Z,1000.61
2018-02-06T02:11:40.408Z,1000.61
2018-02-06T02:12:40.388Z,1000.56
2018-02-06T02:13:40.371Z,1000.58
2018-02-06T02:14:40.352Z,1000.56
2018-02-06T02:15:40.335Z,1000.55
2018-02-06T02:16:40.317Z,1000.51
2018-02-06T02:17:40.300Z,1000.50
2018-02-06T02:18:40.281Z,1000.48
2018-02-06T02:19:40.263Z,1000.42
2018-02-06T02:20:40.244Z,1000.42
2018-02-06T02:21:40.226Z,1000.43
2018-02-06T02:22:40.209Z,1000.40
2018-02-06T02:23:40.191Z,1000.38
2018-02-06T02:24:40.174Z,1000.46
2018-02-06T02:25:40.154Z,1000.41
2018-02-06T02:26:40.137Z,1000.35
2018-02-06T02:27:40.119Z,1000.35
2018-02-06T02:28:40.108Z,1000.33
2018-02-06T02:29:40.082Z,1000.28
2018-02-06T02:30:40.065Z,1000.21
2018-02-06T02:31:40.049Z,1000.25
2018-02-06T02:32:40.029Z,1000.20
2018-02-06T02:33:40.011Z,1000.17
2018-02-06T02:34:39.993Z,1000.16
2018-02-06T02:35:39.974Z,1000.14
2018-02-06T02:36:39.955Z,1000.12
2018-02-06T02:37:39.938Z,1000.07
2018-02-06T02:38:39.920Z,1000.07
2018-02-06T02:39:39.903Z,1000.10
2018-02-06T02:40:39.884Z,1000.01
2018-02-06T02:41:39.866Z,1000.04
2018-02-06T04:38:37.794Z,998.96
2018-02-06T04:39:37.776Z,998.96
2018-02-06T04:40:37.761Z,998.92
2018-02-06T04:41:37.742Z,998.94
2018-02-06T04:42:37.725Z,998.95
2018-02-06T04:43:37.707Z,998.92
2018-02-06T04:44:37.689Z,998.90
2018-02-06T04:45:37.673Z,998.87
2018-02-06T04:46:37.655Z,998.81
2018-02-06T04:47:37.639Z,998.77
2018-02-06T04:48:37.622Z,998.76
2018-02-06T04:49:37.602Z,998.73
2018-02-06T04:50:37.585Z,998.64
2018-02-06T04:51:37.568Z,998.62
2018-02-06T04:52:37.551Z,998.65
2018-02-06T04:53:37.534Z,998.61
2018-02-06T04:54:37.517Z,998.60
2018-02-06T04:55:37.500Z,998.55
2018-02-06T04:56:37.482Z,998.55
2018-02-06T04:57:37.465Z,998.58
2018-02-06T04:58:37.447Z,998.56
2018-02-06T04:59:37.430Z,998.57
2018-02-06T05:00:37.412Z,998.58
2018-02-06T05:01:37.396Z,998.60
2018-02-06T05:02:37.379Z,998.67
2018-02-06T05:03:37.361Z,998.63
2018-02-06T05:04:37.342Z,998.66
2018-02-06T05:05:37.326Z,998.67
2018-02-06T05:06:37.309Z,998.64
2018-02-06T05:07:37.291Z,998.63
2018-02-06T05:08:37.273Z,998.63
2018-02-06T05:09:37.256Z,998.60
2018-02-06T05:10:37.239Z,998.59
2018-02-06T05:11:37.221Z,998.53
2018-02-06T05:12:37.203Z,998.53
2018-02-06T05:13:37.187Z,998.50
2018-02-06T05:14:37.169Z,998.45
2018-02-06T05:15:37.152Z,998.44
2018-02-06T05:16:37.141Z,998.45
2018-02-06T05:17:37.118Z,998.42
2018-02-06T05:18:37.102Z,998.38
2018-02-06T05:19:37.083Z,998.32
2018-02-06T05:20:37.065Z,998.35
2018-02-06T05:21:37.048Z,998.33
2018-02-06T05:22:37.031Z,998.31
2018-02-06T05:23:37.020Z,998.34
2018-02-06T05:24:36.996Z,998.33
2018-02-06T05:25:36.980Z,998.32
2018-02-06T05:26:36.965Z,998.32
2018-02-06T05:27:36.946Z,998.34
2018-02-06T05:28:36.926Z,998.32
2018-02-06T05:29:36.909Z,998.36
2018-02-06T05:30:36.892Z,998.32
2018-02-06T05:31:36.876Z,998.33
2018-02-06T05:32:36.857Z,998.35
2018-02-06T05:33:36.841Z,998.34
2018-02-06T05:34:36.823Z,998.33
2018-02-06T05:35:36.807Z,998.36
2018-02-06T05:36:36.788Z,998.33
2018-02-06T05:37:36.772Z,998.32
2018-02-06T05:38:36.754Z,998.32
2018-02-06T05:39:36.737Z,998.31
2018-02-06T05:40:36.719Z,998.27
2018-02-06T05:41:36.702Z,998.32
2018-02-06T05:42:36.686Z,998.26
2018-02-06T05:43:36.669Z,998.25
2018-02-06T05:44:36.651Z,998.25
2018-02-06T05:45:36.634Z,998.23
2018-02-06T05:46:36.617Z,998.23
2018-02-06T05:47:36.599Z,998.25
2018-02-06T05:48:36.581Z,998.23
2018-02-06T05:49:36.568Z,998.22
2018-02-06T05:50:36.548Z,998.23
2018-02-06T05:51:36.531Z,998.17
2018-02-06T05:52:36.513Z,998.19
2018-02-06T05:53:36.496Z,998.13
2018-02-06T05:54:36.480Z,998.13
2018-02-06T05:55:36.462Z,998.12
2018-02-06T05:56:36.446Z,998.15
2018-02-06T05:57:36.428Z,998.13
2018-02-06T05:58:36.412Z,998.12
2018-02-06T05:59:36.397Z,998.10
2018-02-06T06:00:36.377Z,998.18
2018-02-06T06:01:36.360Z,998.12
2018-02-06T06:02:36.344Z,998.10
2018-02-06T06:03:36.341Z,998.11
2018-02-06T06:04:36.313Z,998.11
2018-02-06T06:05:36.290Z,998.06
2018-02-06T06:06:36.274Z,998.07
2018-02-06T06:07:36.256Z,998.07
2018-02-06T06:08:36.238Z,998.05
2018-02-06T06:09:36.221Z,998.05
2018-02-06T06:10:36.205Z,998.00
2018-02-06T06:11:36.188Z,997.99
2018-02-06T06:12:36.169Z,997.99
2018-02-06T06:13:36.152Z,997.99
2018-02-06T06:14:36.135Z,998.08
2018-02-06T06:15:36.118Z,998.05
2018-02-06T06:16:36.100Z,998.01
2018-02-06T06:17:36.084Z,998.03
2018-02-06T06:18:36.066Z,998.07
2018-02-06T06:19:36.049Z,998.06
2018-02-06T06:20:36.029Z,998.06
2018-02-06T06:21:36.012Z,998.07
2018-02-06T06:22:35.994Z,998.10
2018-02-06T06:23:35.977Z,998.11
2018-02-06T06:24:35.959Z,998.08
2018-02-06T06:25:35.942Z,998.09
2018-02-06T06:26:35.925Z,998.08
2018-02-06T06:27:35.910Z,998.08
2018-02-06T06:28:35.888Z,998.06
2018-02-06T06:29:35.872Z,998.05
2018-02-06T06:30:35.855Z,998.04
2018-02-06T06:31:35.836Z,998.07
2018-02-06T06:32:35.818Z,998.05
2018-02-06T06:33:35.803Z,998.05
2018-02-06T06:34:35.784Z,998.02
2018-02-06T06:35:35.766Z,998.00
2018-02-06T06:36:35.765Z,997.96
2018-02-06T06:37:35.732Z,997.95
2018-02-06T06:38:35.715Z,997.95
2018-02-06T06:39:35.705Z,997.97
2018-02-06T06:40:35.680Z,997.92
2018-02-06T06:41:35.662Z,997.92
2018-02-06T06:42:35.647Z,997.91
2018-02-06T06:43:35.628Z,997.92
2018-02-06T06:44:35.609Z,997.90
2018-02-06T06:45:35.592Z,997.92
2018-02-06T06:46:35.576Z,997.95
2018-02-06T06:47:35.558Z,997.96
2018-02-06T06:48:35.542Z,997.93
2018-02-06T06:49:35.524Z,997.95
2018-02-06T06:50:35.507Z,997.98
2018-02-06T06:51:35.491Z,997.96
2018-02-06T06:52:35.471Z,997.91
2018-02-06T06:53:35.454Z,997.94
2018-02-06T06:54:35.438Z,997.93
2018-02-06T06:55:35.420Z,997.94
2018-02-06T06:56:35.404Z,997.98
2018-02-06T06:57:35.386Z,997.95
2018-02-06T06:58:35.370Z,997.93
2018-02-06T06:59:35.352Z,997.96
2018-02-06T07:00:35.335Z,997.93
2018-02-06T07:01:35.318Z,997.89
2018-02-06T07:02:35.302Z,997.86
2018-02-06T07:03:35.283Z,997.93
2018-02-06T07:04:35.266Z,997.90
2018-02-06T07:05:35.249Z,997.89
2018-02-06T07:06:35.233Z,997.89
2018-02-06T07:07:35.217Z,997.88
2018-02-06T07:08:35.198Z,997.89
2018-02-06T07:09:35.181Z,997.90
2018-02-06T07:10:35.165Z,997.90
2018-02-06T07:11:35.154Z,997.91
2018-02-06T07:12:35.130Z,997.93
2018-02-06T07:13:35.114Z,997.94
2018-02-06T07:14:35.098Z,997.94
2018-02-06T07:15:35.080Z,997.93
2018-02-06T07:16:35.063Z,997.92
2018-02-06T07:17:35.047Z,997.93
2018-02-06T07:18:35.031Z,997.92
2018-02-06T07:19:35.013Z,997.95
2018-02-06T07:20:34.996Z,997.96
2018-02-06T07:21:34.981Z,997.95
2018-02-06T07:22:34.963Z,997.95
2018-02-06T07:23:34.947Z,997.98
2018-02-06T07:24:34.930Z,998.02
2018-02-06T07:25:34.913Z,997.97
2018-02-06T07:26:34.896Z,997.96
2018-02-06T07:27:34.880Z,997.96
2018-02-06T07:28:34.863Z,997.94
2018-02-06T07:29:34.846Z,997.97
2018-02-06T07:30:34.831Z,997.96
2018-02-06T07:31:34.814Z,997.99
2018-02-06T07:32:34.797Z,997.98
2018-02-06T07:33:34.780Z,998.02
2018-02-06T07:34:34.764Z,998.00
2018-02-06T07:35:34.748Z,998.01
2018-02-06T07:36:34.730Z,998.00
2018-02-06T07:37:34.714Z,997.92
2018-02-06T07:38:34.698Z,997.94
2018-02-06T07:39:34.682Z,997.97
2018-02-06T07:40:34.692Z,997.96
2018-02-06T07:41:34.649Z,997.95
2018-02-06T07:42:34.632Z,997.94
2018-02-06T07:43:34.617Z,997.93
2018-02-06T07:44:34.599Z,997.92
2018-02-06T07:45:34.583Z,997.88
2018-02-06T07:46:34.567Z,997.89
2018-02-06T07:47:34.553Z,997.89
2018-02-06T07:48:34.534Z,997.90
2018-02-06T07:49:34.518Z,997.90
2018-02-06T07:50:34.502Z,997.90
2018-02-06T07:51:34.486Z,997.91
2018-02-06T07:52:34.468Z,997.87
2018-02-06T07:53:34.453Z,997.91
2018-02-06T07:54:34.437Z,997.89
2018-02-06T07:55:34.428Z,997.89
2018-02-06T07:56:34.403Z,997.88
2018-02-06T07:57:34.388Z,997.86
2018-02-06T07:58:34.372Z,997.87
2018-02-06T07:59:34.356Z,997.85
2018-02-06T08:00:34.339Z,997.82
2018-02-06T08:01:34.323Z,997.87
2018-02-06T08:02:34.307Z,997.83
2018-02-06T08:03:34.290Z,997.80
2018-02-06T08:04:34.274Z,997.83
2018-02-06T08:05:34.262Z,997.83
2018-02-06T08:06:34.243Z,997.83
2018-02-06T08:07:34.226Z,997.80
2018-02-06T08:08:34.209Z,997.76
2018-02-06T08:09:34.193Z,997.75
2018-02-06T08:10:34.177Z,997.72
2018-02-06T08:11:34.162Z,997.73
2018-02-06T08:12:34.145Z,997.72
2018-02-06T08:13:34.129Z,997.74
2018-02-06T08:14:34.115Z,997.76
2018-02-06T08:15:34.098Z,997.79
2018-02-06T08:16:34.081Z,997.78
2018-02-06T08:17:34.066Z,997.73
2018-02-06T08:18:34.050Z,997.76
2018-02-06T08:19:34.035Z,997.72
2018-02-06T08:20:34.024Z,997.68
2018-02-06T08:21:34.003Z,997.74
2018-02-06T08:22:33.997Z,997.71
2018-02-06T08:23:33.973Z,997.67
2018-02-06T08:24:33.955Z,997.69
2018-02-06T08:25:33.940Z,997.64
2018-02-06T08:26:33.926Z,997.67
2018-02-06T08:27:33.909Z,997.60
2018-02-06T08:28:33.892Z,997.60
2018-02-06T08:29:33.876Z,997.59
2018-02-06T08:30:33.862Z,997.61
2018-02-06T08:31:33.846Z,997.60
2018-02-06T08:32:33.830Z,997.63
2018-02-06T08:33:33.817Z,997.63
2018-02-06T08:34:33.799Z,997.62
2018-02-06T08:35:33.783Z,997.58
2018-02-06T08:36:33.767Z,997.58
2018-02-06T08:37:33.752Z,997.58
2018-02-06T08:38:33.736Z,997.56
2018-02-06T08:39:33.720Z,997.56
2018-02-06T08:40:33.704Z,997.55
2018-02-06T08:41:33.689Z,997.55
2018-02-06T08:42:33.673Z,997.53
2018-02-06T08:43:33.658Z,997.59
2018-02-06T08:44:33.642Z,997.57
2018-02-06T08:45:33.625Z,997.59
2018-02-06T08:46:33.611Z,997.58
2018-02-06T08:47:33.596Z,997.60
2018-02-06T08:48:33.579Z,997.56
2018-02-06T08:49:33.564Z,997.54
2018-02-06T08:50:33.552Z,997.54
2018-02-06T08:51:33.533Z,997.56
2018-02-06T08:52:33.517Z,997.59
2018-02-06T08:53:33.502Z,997.56
2018-02-06T08:54:33.487Z,997.53
2018-02-06T08:55:33.472Z,997.48
2018-02-06T08:56:33.491Z,997.49
2018-02-06T08:57:33.441Z,997.45
2018-02-06T08:58:33.426Z,997.42
2018-02-06T08:59:33.412Z,997.40
2018-02-06T09:00:33.396Z,997.37
2018-02-06T09:01:33.380Z,997.36
2018-02-06T09:02:33.365Z,997.34
2018-02-06T09:03:33.350Z,997.38
2018-02-06T09:04:33.335Z,997.36
2018-02-06T09:05:33.320Z,997.38
2018-02-06T09:06:33.307Z,997.34
2018-02-06T09:07:33.290Z,997.35
2018-02-06T09:08:33.275Z,997.34
2018-02-06T09:09:33.261Z,997.38
2018-02-06T09:10:33.246Z,997.39
2018-02-06T09:11:33.232Z,997.41
2018-02-06T09:12:33.230Z,997.42
2018-02-06T09:13:33.202Z,997.44
2018-02-06T09:14:33.189Z,997.46
2018-02-06T09:15:33.174Z,997.38
2018-02-06T09:16:33.196Z,997.36
2018-02-06T09:17:33.145Z,997.32
2018-02-06T09:18:33.133Z,997.36
2018-02-06T09:19:33.118Z,997.37
2018-02-06T09:20:33.102Z,997.37
2018-02-06T09:21:33.095Z,997.36
2018-02-06T09:22:33.075Z,997.38
2018-02-06T09:23:33.061Z,997.35
2018-02-06T09:24:33.046Z,997.37
2018-02-06T09:25:33.033Z,997.36
2018-02-06T09:26:33.019Z,997.34
2018-02-06T09:27:33.006Z,997.30
2018-02-06T09:28:32.990Z,997.29
2018-02-06T09:29:32.975Z,997.25
2018-02-06T09:30:32.974Z,997.23
2018-02-06T09:31:32.951Z,997.21
2018-02-06T09:32:32.933Z,997.22
2018-02-06T09:33:32.923Z,997.22
2018-02-06T09:34:32.903Z,997.21
2018-02-06T09:35:32.888Z,997.21
2018-02-06T09:36:32.873Z,997.15
2018-02-06T09:37:32.860Z,997.22
2018-02-06T09:38:32.844Z,997.19
2018-02-06T09:39:32.836Z,997.22
2018-02-06T09:40:32.816Z,997.26
2018-02-06T09:41:32.801Z,997.27
2018-02-06T09:42:32.788Z,997.28
2018-02-06T09:43:32.772Z,997.30
2018-02-06T09:44:32.756Z,997.31
2018-02-06T09:45:32.778Z,997.32
2018-02-06T09:46:32.729Z,997.32
2018-02-06T09:47:32.713Z,997.33
2018-02-06T09:48:32.698Z,997.31
2018-02-06T09:49:32.685Z,997.31
2018-02-06T09:50:32.669Z,997.30
2018-02-06T09:51:32.655Z,997.28
2018-02-06T09:52:32.639Z,997.23
2018-02-06T09:53:32.626Z,997.19
2018-02-06T09:54:32.611Z,997.15
2018-02-06T09:55:32.596Z,997.15
2018-02-06T09:56:32.580Z,997.12
2018-02-06T09:57:32.566Z,997.14
2018-02-06T09:58:32.557Z,997.14
2018-02-06T09:59:32.536Z,997.21
2018-02-06T10:00:32.521Z,997.21
2018-02-06T10:01:32.505Z,997.15
2018-02-06T10:02:32.491Z,997.21
2018-02-06T10:03:32.476Z,997.21
2018-02-06T10:04:32.461Z,997.23
2018-02-06T10:05:32.446Z,997.24
2018-02-06T10:06:32.430Z,997.23
2018-02-06T10:07:32.418Z,997.27
2018-02-06T10:08:32.400Z,997.23
2018-02-06T10:09:32.386Z,997.21
2018-02-06T10:10:32.372Z,997.22
2018-02-06T10:11:32.356Z,997.21
2018-02-06T10:12:32.340Z,997.16
2018-02-06T10:13:32.325Z,997.17
2018-02-06T10:14:32.310Z,997.12
2018-02-06T10:15:32.304Z,997.08
2018-02-06T10:16:32.321Z,997.05
2018-02-06T10:17:32.264Z,997.03
2018-02-06T10:18:32.249Z,997.00
2018-02-06T10:19:32.234Z,996.94
2018-02-06T10:20:32.219Z,996.96
2018-02-06T10:21:32.203Z,996.93
2018-02-06T10:22:32.189Z,996.89
2018-02-06T10:23:32.174Z,996.90
2018-02-06T10:24:32.159Z,996.88
2018-02-06T10:25:32.143Z,996.82
2018-02-06T10:26:32.129Z,996.84
2018-02-06T10:27:32.113Z,996.89
2018-02-06T10:28:32.098Z,996.88
2018-02-06T10:29:32.083Z,996.91
2018-02-06T10:30:32.068Z,996.90
2018-02-06T10:31:32.054Z,996.87
2018-02-06T10:32:32.038Z,996.90
2018-02-06T10:33:32.024Z,996.90
2018-02-06T10:34:32.009Z,996.90
2018-02-06T10:35:31.995Z,996.89
2018-02-06T10:36:31.979Z,996.94
2018-02-06T10:37:31.968Z,996.93
2018-02-06T10:38:31.950Z,996.91
2018-02-06T10:39:31.936Z,996.96
2018-02-06T10:40:31.920Z,996.93
2018-02-06T10:41:31.906Z,996.93
2018-02-06T10:42:31.891Z,996.96
2018-02-06T10:43:31.877Z,996.96
2018-02-06T10:44:31.862Z,996.93
2018-02-06T10:45:31.848Z,996.98
2018-02-06T10:46:31.834Z,997.00
2018-02-06T10:47:31.818Z,996.94
2018-02-06T10:48:31.804Z,996.91
2018-02-06T10:49:31.790Z,996.94
2018-02-06T10:50:31.780Z,996.92
2018-02-06T10:51:31.761Z,996.95
2018-02-06T10:52:31.745Z,996.90
2018-02-06T10:53:31.731Z,996.91
2018-02-06T10:54:31.717Z,996.90
2018-02-06T10:55:31.703Z,996.90
2018-02-06T10:56:31.686Z,996.85
2018-02-06T10:57:31.672Z,996.83
2018-02-06T10:58:31.657Z,996.78
2018-02-06T10:59:31.643Z,996.74
2018-02-06T11:00:31.627Z,996.73
2018-02-06T11:01:31.615Z,996.64
2018-02-06T11:02:31.598Z,996.61
2018-02-06T11:03:31.585Z,996.67
2018-02-06T11:04:31.569Z,996.71
2018-02-06T11:05:31.554Z,996.64
2018-02-06T11:06:31.540Z,996.67
2018-02-06T11:07:31.525Z,996.65
2018-02-06T11:08:31.511Z,996.65
2018-02-06T11:09:31.496Z,996.64
2018-02-06T11:10:31.481Z,996.61
2018-02-06T11:11:31.467Z,996.58
2018-02-06T11:12:31.451Z,996.58
2018-02-06T11:13:31.437Z,996.57
2018-02-06T11:14:31.422Z,996.54
2018-02-06T11:15:31.407Z,996.57
2018-02-06T11:16:31.391Z,996.50
2018-02-06T11:17:31.380Z,996.57
2018-02-06T11:18:31.365Z,996.51
2018-02-06T11:19:31.349Z,996.50
2018-02-06T11:20:31.333Z,996.47
2018-02-06T11:21:31.319Z,996.51
2018-02-06T11:22:31.304Z,996.49
2018-02-06T11:23:31.291Z,996.49
2018-02-06T11:24:31.274Z,996.47
2018-02-06T11:25:31.261Z,996.50
2018-02-06T11:26:31.252Z,996.50
2018-02-06T11:27:31.232Z,996.44
2018-02-06T11:28:31.216Z,996.47
2018-02-06T11:29:31.201Z,996.47
2018-02-06T11:30:31.187Z,996.48
2018-02-06T11:31:31.180Z,996.45
2018-02-06T11:32:31.156Z,996.46
2018-02-06T11:33:31.141Z,996.46
2018-02-06T11:34:31.127Z,996.46
2018-02-06T11:35:31.113Z,996.45
2018-02-06T11:36:31.096Z,996.41
2018-02-06T11:37:31.095Z,996.38
2018-02-06T11:38:31.067Z,996.38
2018-02-06T11:39:31.052Z,996.36
2018-02-06T11:40:31.037Z,996.40
2018-02-06T11:41:31.024Z,996.37
2018-02-06T11:42:31.006Z,996.34
2018-02-06T11:43:30.993Z,996.29
2018-02-06T11:44:30.976Z,996.27
2018-02-06T11:45:30.961Z,996.24
2018-02-06T11:46:30.946Z,996.21
2018-02-06T11:47:30.931Z,996.23
2018-02-06T11:48:30.915Z,996.15
2018-02-06T11:49:30.901Z,996.19
2018-02-06T11:50:30.889Z,996.14
2018-02-06T11:51:30.878Z,996.15
2018-02-06T11:52:30.855Z,996.16
2018-02-06T11:53:30.840Z,996.12
2018-02-06T11:54:30.825Z,996.19
2018-02-06T11:55:30.810Z,996.17
2018-02-06T11:56:30.797Z,996.15
2018-02-06T11:57:30.778Z,996.19
2018-02-06T11:58:30.764Z,996.18
2018-02-06T11:59:30.748Z,996.17
2018-02-06T12:00:30.734Z,996.15
2018-02-06T12:01:30.718Z,996.14
2018-02-06T12:02:30.702Z,996.16
2018-02-06T12:03:30.688Z,996.14
2018-02-06T12:04:30.672Z,996.16
2018-02-06T12:05:30.657Z,996.18
2018-02-06T12:06:30.642Z,996.15
2018-02-06T12:07:30.626Z,996.14
2018-02-06T12:08:30.610Z,996.22
2018-02-06T12:09:30.595Z,996.23
2018-02-06T12:10:30.581Z,996.27
2018-02-06T12:11:30.566Z,996.24
2018-02-06T12:12:30.553Z,996.24
2018-02-06T12:13:30.535Z,996.29
2018-02-06T12:14:30.519Z,996.25
2018-02-06T12:15:30.505Z,996.22
2018-02-06T12:16:30.488Z,996.23
2018-02-06T12:17:30.473Z,996.17
2018-02-06T12:18:30.458Z,996.12
2018-02-06T12:19:30.443Z,996.12
2018-02-06T12:20:30.427Z,996.15
2018-02-06T12:21:30.412Z,996.16
2018-02-06T12:22:30.398Z,996.16
2018-02-06T12:23:30.382Z,996.15
2018-02-06T12:24:30.366Z,996.14
2018-02-06T12:25:30.351Z,996.10
2018-02-06T12:26:30.336Z,996.11
2018-02-06T12:27:30.321Z,996.08
2018-02-06T12:28:30.305Z,996.06
2018-02-06T12:29:30.290Z,996.06
2018-02-06T12:30:30.276Z,996.03
2018-02-06T12:31:30.264Z,996.02
2018-02-06T12:32:30.247Z,995.94
2018-02-06T12:33:30.230Z,995.91
2018-02-06T12:34:30.215Z,995.91
2018-02-06T12:35:30.200Z,995.90
2018-02-06T12:36:30.184Z,995.88
2018-02-06T12:37:30.170Z,995.87
2018-02-06T12:38:30.155Z,995.85
2018-02-06T12:39:30.146Z,995.85
2018-02-06T12:40:30.125Z,995.81
2018-02-06T12:41:30.109Z,995.81
2018-02-06T12:42:30.094Z,995.79
2018-02-06T12:43:30.080Z,995.80
2018-02-06T12:44:30.065Z,995.75
2018-02-06T12:45:30.048Z,995.76
2018-02-06T12:46:30.035Z,995.81
2018-02-06T12:47:30.021Z,995.77
2018-02-06T12:48:30.005Z,995.78
2018-02-06T12:49:29.989Z,995.74
2018-02-06T12:50:29.974Z,995.71
2018-02-06T12:51:29.959Z,995.74
2018-02-06T12:52:29.943Z,995.72
2018-02-06T12:53:29.928Z,995.67
2018-02-06T12:54:29.913Z,995.72
2018-02-06T12:55:29.898Z,995.74
2018-02-06T12:56:29.883Z,995.75
2018-02-06T12:57:29.868Z,995.73
2018-02-06T12:58:29.853Z,995.73
2018-02-06T12:59:29.840Z,995.75
2018-02-06T13:00:29.822Z,995.77
2018-02-06T13:01:29.807Z,995.78
2018-02-06T13:02:29.792Z,995.83
2018-02-06T13:03:29.783Z,995.80
2018-02-06T13:04:29.762Z,995.81
2018-02-06T13:05:29.747Z,995.83
2018-02-06T13:06:29.731Z,995.81
2018-02-06T13:07:29.716Z,995.79
2018-02-06T13:08:29.701Z,995.78
2018-02-06T13:09:29.686Z,995.78
2018-02-06T13:10:29.670Z,995.80
2018-02-06T13:11:29.656Z,995.83
2018-02-06T13:12:29.641Z,995.81
2018-02-06T13:13:29.624Z,995.80
2018-02-06T13:14:29.610Z,995.82
2018-02-06T13:15:29.595Z,995.81
2018-02-06T13:16:29.579Z,995.74
2018-02-06T13:17:29.564Z,995.79
2018-02-06T13:18:29.549Z,995.74
2018-02-06T13:19:29.534Z,995.73
2018-02-06T13:20:29.520Z,995.73
2018-02-06T13:21:29.504Z,995.73
2018-02-06T13:22:29.489Z,995.72
2018-02-06T13:23:29.474Z,995.70
2018-02-06T13:24:29.458Z,995.67
2018-02-06T13:25:29.444Z,995.64
2018-02-06T13:26:29.435Z,995.67
2018-02-06T13:27:29.414Z,995.65
2018-02-06T13:28:29.398Z,995.64
2018-02-06T13:29:29.386Z,995.62
2018-02-06T13:30:29.369Z,995.61
2018-02-06T13:31:29.354Z,995.62
2018-02-06T13:32:29.338Z,995.59
2018-02-06T13:33:29.324Z,995.63
2018-02-06T13:34:29.309Z,995.59
2018-02-06T13:35:29.298Z,995.62
2018-02-06T13:36:29.278Z,995.61
2018-02-06T13:37:29.264Z,995.63
2018-02-06T13:38:29.249Z,995.61
2018-02-06T13:39:29.235Z,995.60
2018-02-06T13:40:29.219Z,995.59
2018-02-06T13:41:29.204Z,995.64
2018-02-06T13:42:29.189Z,995.56
2018-02-06T13:43:29.175Z,995.61
2018-02-06T13:44:29.160Z,995.58
2018-02-06T13:45:29.144Z,995.55
2018-02-06T13:46:29.132Z,995.56
2018-02-06T13:47:29.117Z,995.57
2018-02-06T13:48:29.100Z,995.56
2018-02-06T13:49:29.087Z,995.55
2018-02-06T13:50:29.071Z,995.52
2018-02-06T13:51:29.056Z,995.54
2018-02-06T13:52:29.042Z,995.54
2018-02-06T13:53:29.027Z,995.54
2018-02-06T13:54:29.013Z,995.50
2018-02-06T13:55:28.997Z,995.48
2018-02-06T13:56:28.983Z,995.45
2018-02-06T13:57:28.968Z,995.46
2018-02-06T13:58:28.955Z,995.45
2018-02-06T13:59:28.939Z,995.45
2018-02-06T14:00:28.923Z,995.50
2018-02-06T14:01:28.909Z,995.47
2018-02-06T14:02:28.894Z,995.41
2018-02-06T14:03:28.880Z,995.48
2018-02-06T14:04:28.864Z,995.38
2018-02-06T14:05:28.850Z,995.43
2018-02-06T14:06:28.836Z,995.40
2018-02-06T14:07:28.820Z,995.39
2018-02-06T14:08:28.805Z,995.38
2018-02-06T14:09:28.791Z,995.39
2018-02-06T14:10:28.776Z,995.40
2018-02-06T14:11:28.770Z,995.37
2018-02-06T14:12:28.746Z,995.39
2018-02-06T14:13:28.732Z,995.35
2018-02-06T14:14:28.717Z,995.38
2018-02-06T14:15:28.703Z,995.39
2018-02-06T14:16:28.688Z,995.35
2018-02-06T14:17:28.673Z,995.37
2018-02-06T14:18:28.658Z,995.32
2018-02-06T14:19:28.643Z,995.36